Time;durP1;ratioP1;P1;durP2;ratioP2;P2;SDS_P1;SDS_P2;PMS_P1;PMS_P2;Temp;Humidity;BMP_temperature;BMP_pressure;BME280_temperature;BME280_humidity;BME280_pressure;Samples;Min_cycle;Max_cycle;Signal;HPM_P1;HPM_P2
2021/09/08 00:00:58;;;;;;;27.27;17.95;;;;;;;11.04;74.93;100949.48;2172444;80;21122;-80
2021/09/08 00:04:00;;;;;;;23.05;15.70;;;;;;;11.17;74.92;100967.70;2172011;80;21055;-78
2021/09/08 00:07:02;;;;;;;27.73;16.80;;;;;;;11.17;74.92;100967.70;2173570;80;20977;-81
2021/09/08 00:10:07;;;;;;;32.63;20.55;;;;;;;11.14;74.60;100973.31;2172688;80;20993;-79
2021/09/08 00:13:08;;;;;;;33.02;20.10;;;;;;;11.12;74.94;100964.19;2171869;80;21059;-81
2021/09/08 00:16:10;;;;;;;26.05;16.85;;;;;;;11.13;75.36;100964.52;2168159;80;21600;-79
2021/09/08 00:19:11;;;;;;;31.60;19.17;;;;;;;11.12;75.07;100966.84;2179429;80;20986;-82
2021/09/08 00:22:14;;;;;;;32.53;18.20;;;;;;;11.08;75.44;100963.30;2169938;80;20977;-80
2021/09/08 00:25:15;;;;;;;31.15;18.30;;;;;;;11.05;75.23;100967.08;2177824;80;21024;-80
2021/09/08 00:28:17;;;;;;;31.80;17.40;;;;;;;11.03;74.93;100966.39;2169344;80;20955;-81
2021/09/08 00:31:19;;;;;;;33.58;19.55;;;;;;;11.00;75.26;100963.53;2171059;80;21455;-81
2021/09/08 00:34:22;;;;;;;31.70;19.85;;;;;;;10.99;75.55;100963.20;2165919;80;21092;-79
2021/09/08 00:37:24;;;;;;;34.20;20.00;;;;;;;10.99;75.33;100965.03;2161023;80;21013;-79
2021/09/08 00:40:27;;;;;;;25.88;16.52;;;;;;;10.95;75.42;100966.29;2152928;80;21083;-78
2021/09/08 00:43:29;;;;;;;31.60;19.30;;;;;;;10.89;75.10;100965.56;2162410;80;20959;-80
2021/09/08 00:46:32;;;;;;;26.95;16.45;;;;;;;10.84;75.08;100962.51;2163367;80;20986;-81
2021/09/08 00:49:33;;;;;;;22.10;13.65;;;;;;;10.82;75.10;100965.83;2160095;80;21504;-80
2021/09/08 00:52:38;;;;;;;24.52;14.93;;;;;;;10.79;74.88;100966.13;2165567;80;21121;-79
2021/09/08 00:55:39;;;;;;;22.00;15.25;;;;;;;10.75;74.74;100965.56;2160840;80;21517;-77
2021/09/08 00:58:41;;;;;;;25.17;15.10;;;;;;;10.72;74.76;100961.88;2158164;80;21083;-79
2021/09/08 01:01:42;;;;;;;25.05;16.50;;;;;;;10.66;74.81;100972.59;2166403;80;21038;-79
2021/09/08 01:04:45;;;;;;;26.07;16.93;;;;;;;10.62;74.78;100973.88;2168062;80;20994;-79
2021/09/08 01:07:48;;;;;;;24.82;15.48;;;;;;;10.63;74.99;100968.91;2163422;80;21529;-82
2021/09/08 01:10:51;;;;;;;27.00;17.07;;;;;;;10.60;74.81;100971.85;2169518;80;20982;-80
2021/09/08 01:13:52;;;;;;;26.73;17.37;;;;;;;10.56;75.17;100970.48;2137331;80;21039;-79
2021/09/08 01:16:57;;;;;;;22.62;14.95;;;;;;;10.51;75.36;100970.91;2169659;80;21003;-81
2021/09/08 01:19:58;;;;;;;26.62;15.83;;;;;;;10.47;75.06;100970.01;2159476;80;20980;-79
2021/09/08 01:23:01;;;;;;;24.45;15.58;;;;;;;10.42;75.18;100970.46;2159616;80;21028;-79
2021/09/08 01:26:03;;;;;;;23.77;15.85;;;;;;;10.37;74.93;100971.88;2156950;80;20963;-79
2021/09/08 01:29:05;;;;;;;25.30;16.20;;;;;;;10.35;74.91;100961.89;2162818;80;20993;-79
2021/09/08 01:32:07;;;;;;;24.92;16.15;;;;;;;10.30;74.80;100968.48;2166464;80;21472;-80
2021/09/08 01:35:10;;;;;;;22.55;14.85;;;;;;;10.26;74.84;100962.23;2164145;80;21044;-82
2021/09/08 01:38:11;;;;;;;20.85;14.47;;;;;;;10.24;74.93;100966.34;2166621;80;20994;-79
2021/09/08 01:41:13;;;;;;;21.20;13.60;;;;;;;10.25;75.31;100961.91;2166653;80;20973;-79
2021/09/08 01:44:24;;;;;;;19.05;13.50;;;;;;;10.24;75.21;100962.86;2153910;80;20946;-78
2021/09/08 01:47:25;;;;;;;;;;;;;;;10.26;75.30;100961.74;2166602;80;21088;-80
2021/09/08 01:50:26;;;;;;;37.65;16.42;;;;;;;10.28;75.16;100957.17;2155235;80;20141;-80
2021/09/08 01:53:28;;;;;;;24.67;15.00;;;;;;;10.25;75.77;100953.45;2161644;80;21001;-80
2021/09/08 01:56:30;;;;;;;22.20;13.62;;;;;;;10.23;75.64;100952.75;2164807;80;21042;-79
2021/09/08 01:59:31;;;;;;;21.77;13.38;;;;;;;10.20;75.52;100957.02;2173166;80;20986;-81
2021/09/08 02:02:33;;;;;;;20.37;13.55;;;;;;;10.16;75.05;100957.44;2163393;80;21517;-79
2021/09/08 02:05:35;;;;;;;26.82;18.02;;;;;;;10.10;75.09;100961.50;2164888;80;21037;-80
2021/09/08 02:08:37;;;;;;;33.23;18.20;;;;;;;10.08;75.65;100959.50;2162157;80;21043;-79
2021/09/08 02:11:39;;;;;;;21.17;14.40;;;;;;;10.07;75.84;100952.51;2159652;80;21076;-81
2021/09/08 02:14:41;;;;;;;38.85;20.57;;;;;;;10.02;75.59;100955.61;2160267;80;21046;-81
2021/09/08 02:17:42;;;;;;;31.20;17.92;;;;;;;10.00;75.77;100956.73;2159318;80;20958;-80
2021/09/08 02:20:43;;;;;;;23.62;15.78;;;;;;;10.01;76.04;100947.78;2156016;80;21042;-81
2021/09/08 02:23:45;;;;;;;24.18;15.75;;;;;;;9.98;75.99;100955.53;2163352;80;21010;-82
2021/09/08 02:26:47;;;;;;;25.88;16.10;;;;;;;9.97;75.69;100959.67;2158947;80;21479;-82
2021/09/08 02:29:48;;;;;;;34.45;20.43;;;;;;;9.90;75.44;100959.88;2159630;80;20938;-81
2021/09/08 02:32:50;;;;;;;37.05;21.45;;;;;;;9.89;76.45;100955.06;2158218;80;21024;-81
2021/09/08 02:35:51;;;;;;;35.52;21.37;;;;;;;9.87;77.08;100962.31;2160821;80;21491;-79
2021/09/08 02:38:53;;;;;;;30.77;19.20;;;;;;;9.88;77.46;100959.53;2161341;80;21549;-81
2021/09/08 02:41:55;;;;;;;35.13;19.75;;;;;;;9.89;77.72;100959.05;2164040;80;21696;-79
2021/09/08 02:44:56;;;;;;;36.30;20.92;;;;;;;9.90;77.53;100956.72;2156963;80;21011;-83
2021/09/08 02:47:58;;;;;;;27.73;18.25;;;;;;;9.92;78.01;100954.78;2163875;80;20971;-79
2021/09/08 02:51:00;;;;;;;34.78;20.85;;;;;;;9.90;77.51;100952.75;2155804;80;21022;-80
2021/09/08 02:54:01;;;;;;;32.30;19.15;;;;;;;9.93;77.93;100952.46;2157579;80;21006;-80
2021/09/08 02:57:03;;;;;;;26.07;17.35;;;;;;;9.95;77.81;100957.14;2157922;80;21489;-80
2021/09/08 03:00:06;;;;;;;29.75;20.52;;;;;;;9.96;77.59;100957.97;2153623;80;21048;-79
2021/09/08 03:03:07;;;;;;;24.67;15.63;;;;;;;9.97;77.93;100961.82;2157925;80;20997;-82
2021/09/08 03:06:09;;;;;;;33.78;19.20;;;;;;;9.98;77.37;100953.38;2155059;80;20988;-77
2021/09/08 03:09:11;;;;;;;27.60;17.70;;;;;;;9.98;77.59;100954.70;2156682;80;21046;-80
2021/09/08 03:12:12;;;;;;;19.32;13.53;;;;;;;9.98;77.64;100950.72;2162644;80;20962;-79
2021/09/08 03:15:14;;;;;;;23.62;15.45;;;;;;;9.94;77.18;100960.78;2163041;80;21055;-79
2021/09/08 03:18:15;;;;;;;27.50;19.20;;;;;;;9.88;76.99;100951.58;2153334;80;21048;-79
2021/09/08 03:21:17;;;;;;;23.55;17.40;;;;;;;9.85;77.36;100953.20;2161241;80;21495;-81
2021/09/08 03:24:18;;;;;;;24.00;16.65;;;;;;;9.81;77.18;100946.48;2158728;80;20997;-80
2021/09/08 03:27:20;;;;;;;25.20;18.15;;;;;;;9.76;76.92;100946.06;2156019;80;21016;-81
2021/09/08 03:30:21;;;;;;;26.93;18.50;;;;;;;9.72;76.85;100944.69;2161274;80;21027;-78
2021/09/08 03:33:23;;;;;;;26.65;17.92;;;;;;;9.67;76.90;100944.77;2156549;80;20957;-81
2021/09/08 03:36:24;;;;;;;22.65;15.30;;;;;;;9.65;76.79;100950.19;2154211;80;21045;-78
2021/09/08 03:39:26;;;;;;;23.85;15.30;;;;;;;9.61;76.65;100952.79;2160889;81;21017;-79
2021/09/08 03:42:28;;;;;;;24.10;14.55;;;;;;;9.58;76.83;100946.45;2156590;81;21006;-79
2021/09/08 03:45:29;;;;;;;22.45;15.68;;;;;;;9.55;76.58;100948.05;2155020;81;21064;-81
2021/09/08 03:48:32;;;;;;;23.47;15.70;;;;;;;9.53;76.78;100945.53;2146340;81;21036;-79
2021/09/08 03:51:33;;;;;;;21.77;14.90;;;;;;;9.53;77.02;100938.91;2154610;81;21053;-82
2021/09/08 03:54:36;;;;;;;22.73;14.45;;;;;;;9.54;76.95;100942.39;2155997;80;21451;-80
2021/09/08 03:57:37;;;;;;;22.62;15.75;;;;;;;9.51;76.51;100949.30;2153407;81;21005;-77
2021/09/08 04:00:39;;;;;;;25.20;15.58;;;;;;;9.46;76.79;100945.76;2154047;81;20988;-79
2021/09/08 04:03:40;;;;;;;20.77;14.35;;;;;;;9.47;77.22;100949.23;2155386;81;21011;-82
2021/09/08 04:06:42;;;;;;;24.02;13.88;;;;;;;9.46;77.12;100950.19;2156448;81;21754;-80
2021/09/08 04:09:43;;;;;;;21.33;14.50;;;;;;;9.42;76.94;100946.50;2156652;81;20974;-80
2021/09/08 04:12:45;;;;;;;18.40;13.15;;;;;;;9.38;76.86;100943.80;2155577;81;21053;-81
2021/09/08 04:15:46;;;;;;;22.87;14.68;;;;;;;9.37;76.99;100946.07;2157358;80;21064;-81
2021/09/08 04:18:48;;;;;;;24.15;14.63;;;;;;;9.37;76.97;100943.42;2156529;81;20981;-81
2021/09/08 04:21:49;;;;;;;22.27;15.32;;;;;;;9.35;77.31;100945.40;2156421;81;21023;-79
2021/09/08 04:24:51;;;;;;;24.77;16.00;;;;;;;9.34;77.57;100945.03;2157085;81;21512;-83
2021/09/08 04:27:52;;;;;;;19.55;12.95;;;;;;;9.33;77.59;100951.31;2147725;81;21048;-81
2021/09/08 04:30:53;;;;;;;20.60;12.05;;;;;;;9.34;77.20;100954.30;2152786;81;20973;-81
2021/09/08 04:33:55;;;;;;;19.20;11.65;;;;;;;9.33;77.36;100951.31;2151256;81;21026;-80
2021/09/08 04:36:56;;;;;;;14.40;11.38;;;;;;;9.36;77.25;100949.70;2158411;80;21536;-81
2021/09/08 04:39:58;;;;;;;18.80;10.75;;;;;;;9.40;77.23;100952.45;2158084;80;20982;-79
2021/09/08 04:43:01;;;;;;;15.80;11.38;;;;;;;9.42;77.10;100947.82;2158563;80;20977;-79
2021/09/08 04:46:03;;;;;;;20.27;13.25;;;;;;;9.45;77.04;100953.33;2158705;80;21084;-81
2021/09/08 04:49:04;;;;;;;20.62;13.95;;;;;;;9.48;77.17;100946.92;2158894;80;21028;-83
2021/09/08 04:52:06;;;;;;;22.65;14.70;;;;;;;9.58;77.28;100948.60;2162318;80;21513;-80
2021/09/08 04:55:08;;;;;;;26.82;17.80;;;;;;;9.66;77.37;100946.59;2160922;80;20980;-82
2021/09/08 04:58:09;;;;;;;30.75;18.57;;;;;;;9.67;77.65;100945.59;2159811;80;21029;-83
2021/09/08 05:01:11;;;;;;;25.02;15.98;;;;;;;9.75;77.78;100945.73;2159852;80;21019;-80
2021/09/08 05:04:12;;;;;;;26.57;17.05;;;;;;;9.86;77.88;100948.72;2156969;80;21013;-80
2021/09/08 05:07:14;;;;;;;25.15;15.13;;;;;;;9.95;77.63;100943.05;2161518;80;21489;-83
2021/09/08 05:10:15;;;;;;;26.23;15.83;;;;;;;10.02;77.55;100945.47;2166022;80;21019;-80
2021/09/08 05:13:17;;;;;;;31.25;18.60;;;;;;;10.22;77.93;100940.48;2165115;80;20970;-80
2021/09/08 05:16:18;;;;;;;26.35;17.60;;;;;;;10.47;78.01;100948.31;2173130;80;21067;-80
2021/09/08 05:19:20;;;;;;;23.65;16.30;;;;;;;10.85;77.97;100952.25;2162236;80;21490;-80
2021/09/08 05:22:21;;;;;;;25.75;16.93;;;;;;;11.27;77.99;100953.05;2169963;80;21563;-78
2021/09/08 05:25:23;;;;;;;25.52;17.80;;;;;;;11.67;77.87;100945.92;2156753;80;20998;-78
2021/09/08 05:28:25;;;;;;;27.48;18.30;;;;;;;12.18;77.90;100946.16;2160167;80;21057;-80
2021/09/08 05:31:26;;;;;;;29.07;19.80;;;;;;;12.65;77.70;100943.08;2167529;80;20955;-77
2021/09/08 05:34:28;;;;;;;29.18;19.35;;;;;;;13.07;77.43;100941.72;2166311;80;21074;-79
2021/09/08 05:37:30;;;;;;;30.72;19.70;;;;;;;13.58;77.28;100946.98;2155476;80;20978;-81
2021/09/08 05:40:31;;;;;;;32.45;19.85;;;;;;;14.07;77.05;100938.42;2158904;80;20970;-78
2021/09/08 05:43:33;;;;;;;28.95;20.68;;;;;;;14.50;76.15;100944.34;2148175;80;21041;-78
2021/09/08 05:46:34;;;;;;;33.83;22.20;;;;;;;14.74;75.63;100945.27;2157964;80;21000;-81
2021/09/08 05:49:36;;;;;;;30.30;20.32;;;;;;;15.20;75.71;100944.88;2156917;80;21044;-85
2021/09/08 05:52:38;;;;;;;27.82;19.98;;;;;;;15.72;75.43;100946.53;2164716;80;21045;-82
2021/09/08 05:55:39;;;;;;;31.17;20.82;;;;;;;16.19;74.71;100940.89;2156141;80;21004;-80
2021/09/08 05:58:41;;;;;;;27.95;20.88;;;;;;;16.64;74.14;100943.55;2151870;80;21040;-82
2021/09/08 06:01:42;;;;;;;28.27;20.75;;;;;;;17.11;73.61;100947.14;2146882;80;21443;-82
2021/09/08 06:04:44;;;;;;;28.73;20.82;;;;;;;17.48;73.03;100942.56;2155634;80;21021;-82
2021/09/08 06:07:45;;;;;;;30.30;22.25;;;;;;;18.00;72.65;100945.42;2144395;80;20993;-82
2021/09/08 06:10:47;;;;;;;28.62;22.13;;;;;;;18.32;71.33;100943.97;2160539;80;20984;-82
2021/09/08 06:13:48;;;;;;;29.20;21.82;;;;;;;18.54;71.20;100945.23;2148223;80;21078;-82
2021/09/08 06:16:50;;;;;;;34.05;22.20;;;;;;;18.64;70.15;100942.16;2148341;80;21048;-82
2021/09/08 06:19:52;;;;;;;31.10;22.30;;;;;;;18.88;70.04;100947.06;2148266;80;21029;-86
2021/09/08 06:22:53;;;;;;;32.08;22.80;;;;;;;19.16;68.41;100942.09;2160373;80;20964;-84
2021/09/08 06:25:55;;;;;;;27.85;21.57;;;;;;;19.06;68.37;100936.25;2153988;80;20966;-85
2021/09/08 06:28:56;;;;;;;30.30;22.07;;;;;;;19.26;68.70;100945.23;2155067;80;21127;-84
2021/09/08 06:31:58;;;;;;;29.63;21.42;;;;;;;19.56;68.20;100941.63;2152090;80;20984;-84
2021/09/08 06:35:00;;;;;;;32.75;23.62;;;;;;;19.69;67.42;100937.64;2149040;80;21024;-85
2021/09/08 06:38:01;;;;;;;32.50;22.15;;;;;;;19.82;67.02;100938.66;2147730;81;21036;-86
2021/09/08 06:41:03;;;;;;;28.57;22.20;;;;;;;19.82;66.48;100937.31;2152363;81;20961;-83
2021/09/08 06:44:04;;;;;;;31.90;22.98;;;;;;;19.76;65.95;100939.50;2155478;81;21558;-83
2021/09/08 06:47:06;;;;;;;34.25;23.38;;;;;;;19.68;65.99;100940.52;2153201;81;21014;-83
2021/09/08 06:50:08;;;;;;;30.43;23.07;;;;;;;19.74;65.32;100939.72;2148874;81;20958;-82
2021/09/08 06:53:09;;;;;;;33.35;22.55;;;;;;;19.56;64.95;100941.63;2152625;81;21071;-80
2021/09/08 06:56:11;;;;;;;33.18;23.50;;;;;;;19.43;65.35;100938.95;2148901;81;20921;-79
2021/09/08 06:59:12;;;;;;;33.60;23.55;;;;;;;19.43;65.59;100937.08;2153745;81;21008;-80
2021/09/08 07:02:14;;;;;;;30.72;22.00;;;;;;;19.57;65.41;100938.41;2156483;81;21455;-80
2021/09/08 07:05:17;;;;;;;32.55;22.70;;;;;;;19.72;65.18;100939.61;2158735;81;21040;-80
2021/09/08 07:08:19;;;;;;;28.83;21.75;;;;;;;19.97;65.27;100941.98;2149956;81;20996;-81
2021/09/08 07:11:22;;;;;;;30.65;21.82;;;;;;;20.07;64.03;100941.02;2149047;81;20964;-78
2021/09/08 07:14:24;;;;;;;28.45;22.17;;;;;;;20.08;64.50;100944.56;2156553;81;21020;-80
2021/09/08 07:17:26;;;;;;;29.30;20.82;;;;;;;20.10;63.98;100940.62;2158162;81;21012;-80
2021/09/08 07:20:27;;;;;;;28.15;20.88;;;;;;;20.29;64.39;100939.44;2160596;80;21349;-82
2021/09/08 07:23:29;;;;;;;28.83;20.97;;;;;;;20.54;64.17;100935.57;2157237;81;21448;-81
2021/09/08 07:26:34;;;;;;;30.90;22.22;;;;;;;20.86;63.56;100939.16;2146164;81;20988;-82
2021/09/08 07:29:35;;;;;;;32.40;19.92;;;;;;;21.23;63.00;100940.23;2151438;81;20962;-81
2021/09/08 07:32:37;;;;;;;32.50;20.27;;;;;;;21.48;62.39;100941.66;2150069;81;20961;-82
2021/09/08 07:35:39;;;;;;;34.25;20.82;;;;;;;21.59;61.92;100947.38;2155522;80;21013;-82
2021/09/08 07:38:40;;;;;;;26.85;20.27;;;;;;;21.81;61.13;100942.42;2159109;80;21081;-81
2021/09/08 07:41:42;;;;;;;24.65;17.73;;;;;;;21.97;60.58;100941.05;2160051;80;21032;-81
2021/09/08 07:44:43;;;;;;;25.40;18.77;;;;;;;21.89;59.60;100946.20;2161726;80;21062;-82
2021/09/08 07:47:45;;;;;;;22.62;18.27;;;;;;;21.69;58.69;100945.02;2174620;80;21568;-81
2021/09/08 07:50:48;;;;;;;27.65;17.82;;;;;;;21.66;59.42;100948.98;2163831;80;20977;-82
2021/09/08 07:53:49;;;;;;;25.40;18.10;;;;;;;21.70;58.86;100952.06;2159845;80;21040;-81
2021/09/08 07:56:51;;;;;;;19.87;16.27;;;;;;;21.92;59.45;100953.86;2159851;80;21026;-83
2021/09/08 07:59:53;;;;;;;23.18;17.32;;;;;;;22.46;60.05;100956.89;2161051;80;20997;-83
2021/09/08 08:02:54;;;;;;;23.90;16.97;;;;;;;22.66;58.93;100955.31;2157538;80;20988;-81
2021/09/08 08:05:55;;;;;;;20.50;16.32;;;;;;;22.91;58.39;100949.80;2158772;80;20961;-82
2021/09/08 08:08:57;;;;;;;23.45;16.77;;;;;;;22.97;58.05;100955.68;2162552;80;21550;-82
2021/09/08 08:11:58;;;;;;;25.60;16.80;;;;;;;22.78;57.17;100956.22;2169226;80;21680;-83
2021/09/08 08:15:00;;;;;;;22.05;18.37;;;;;;;22.90;57.22;100952.22;2161445;80;20976;-83
2021/09/08 08:18:02;;;;;;;20.20;16.10;;;;;;;23.29;57.05;100951.41;2154792;80;21006;-82
2021/09/08 08:21:05;;;;;;;24.07;16.27;;;;;;;23.35;56.95;100948.59;2152872;80;21038;-84
2021/09/08 08:24:07;;;;;;;22.15;16.73;;;;;;;23.62;56.38;100947.64;2163141;80;21038;-83
2021/09/08 08:27:09;;;;;;;28.67;18.07;;;;;;;23.72;56.44;100945.75;2156019;80;21084;-84
2021/09/08 08:30:13;;;;;;;21.48;16.70;;;;;;;24.05;55.20;100944.38;2152155;80;21061;-84
2021/09/08 08:33:14;;;;;;;24.45;17.62;;;;;;;24.14;54.99;100946.48;2154351;80;21661;-85
2021/09/08 08:36:16;;;;;;;24.07;16.45;;;;;;;24.19;54.40;100946.28;2154739;80;21143;-85
2021/09/08 08:39:18;;;;;;;20.35;15.98;;;;;;;24.20;53.46;100935.75;2153586;80;21024;-84
2021/09/08 08:42:27;;;;;;;22.75;15.40;;;;;;;24.08;53.71;100939.83;2159371;80;20992;-79
2021/09/08 08:45:30;;;;;;;21.02;16.25;;;;;;;24.07;53.97;100941.69;2162480;80;21014;-82
2021/09/08 08:48:31;;;;;;;18.77;14.73;;;;;;;24.24;53.88;100942.34;2157502;80;21480;-83
2021/09/08 08:51:33;;;;;;;18.85;14.78;;;;;;;24.31;53.61;100940.34;2158039;80;21468;-84
2021/09/08 08:54:34;;;;;;;21.12;15.08;;;;;;;24.40;53.75;100933.47;2167681;80;20966;-85
2021/09/08 08:57:36;;;;;;;20.40;15.15;;;;;;;24.29;52.44;100937.84;2157522;80;21342;-84
2021/09/08 09:00:39;;;;;;;20.17;15.80;;;;;;;24.10;52.43;100937.69;2163390;80;21044;-86
2021/09/08 09:03:41;;;;;;;19.40;14.28;;;;;;;24.16;51.35;100938.94;2154847;80;21090;-85
2021/09/08 09:06:48;;;;;;;24.10;16.00;;;;;;;24.10;50.63;100932.27;2136462;80;21058;-85
2021/09/08 09:09:53;;;;;;;20.60;15.55;;;;;;;24.12;51.54;100935.03;2159666;80;21040;-84
2021/09/08 09:12:55;;;;;;;16.32;13.75;;;;;;;24.14;51.47;100936.17;2160908;80;21596;-84
2021/09/08 09:16:09;;;;;;;21.25;14.80;;;;;;;24.28;51.47;100933.50;2157538;80;21038;-84
2021/09/08 09:19:12;;;;;;;18.25;14.70;;;;;;;24.37;51.19;100928.53;2165590;80;20978;-84
2021/09/08 09:22:17;;;;;;;19.42;14.13;;;;;;;24.61;50.27;100927.99;2152031;80;20970;-84
2021/09/08 09:25:23;;;;;;;16.42;13.30;;;;;;;24.66;48.62;100924.00;2161884;80;21021;-84
2021/09/08 09:28:29;;;;;;;17.12;14.33;;;;;;;24.71;48.87;100920.03;2158471;80;21051;-85
2021/09/08 09:31:31;;;;;;;16.55;13.35;;;;;;;24.79;48.16;100923.73;2153019;80;21014;-85
2021/09/08 09:34:33;;;;;;;17.62;14.45;;;;;;;24.57;47.43;100917.31;2158688;80;21046;-86
2021/09/08 09:37:37;;;;;;;18.98;14.28;;;;;;;24.59;48.99;100914.66;2161484;80;21559;-84
2021/09/08 09:40:39;;;;;;;18.30;13.03;;;;;;;24.79;49.40;100906.62;2145820;80;21021;-83
2021/09/08 09:43:42;;;;;;;17.87;13.62;;;;;;;25.01;47.32;100903.52;2152557;80;20999;-85
2021/09/08 09:46:46;;;;;;;19.05;13.35;;;;;;;25.03;47.57;100904.11;2152878;80;21529;-85
2021/09/08 09:49:57;;;;;;;16.87;12.40;;;;;;;25.21;48.33;100898.20;2148518;80;20980;-83
2021/09/08 09:52:59;;;;;;;16.37;10.90;;;;;;;25.49;47.24;100895.95;2149463;80;21900;-86
2021/09/08 09:56:01;;;;;;;15.48;11.90;;;;;;;25.63;47.08;100889.66;2154742;80;21041;-86
2021/09/08 09:59:02;;;;;;;14.23;11.08;;;;;;;25.84;46.84;100890.81;2160104;80;20937;-84
2021/09/08 10:02:04;;;;;;;11.93;10.18;;;;;;;26.03;46.83;100884.56;2151403;80;21050;-84
2021/09/08 10:05:07;;;;;;;12.95;8.98;;;;;;;26.09;45.05;100884.91;2158534;80;20941;-84
2021/09/08 10:08:09;;;;;;;11.50;9.53;;;;;;;26.11;42.24;100871.89;2150370;80;21095;-83
2021/09/08 10:11:19;;;;;;;12.53;9.38;;;;;;;25.89;43.79;100872.67;2151610;80;21043;-86
2021/09/08 10:14:27;;;;;;;11.88;9.80;;;;;;;26.14;44.22;100874.11;2151008;80;21017;-85
2021/09/08 10:17:35;;;;;;;14.90;9.60;;;;;;;26.34;42.16;100872.19;2155448;80;21097;-88
2021/09/08 10:20:37;;;;;;;10.72;8.75;;;;;;;26.42;43.25;100866.30;2145822;80;21557;-86
2021/09/08 10:23:42;;;;;;;13.25;9.43;;;;;;;26.62;40.64;100856.22;2154837;80;21565;-83
2021/09/08 10:26:45;;;;;;;12.20;9.20;;;;;;;26.56;42.22;100862.69;2158290;80;21527;-84
2021/09/08 10:29:51;;;;;;;15.30;9.73;;;;;;;26.63;42.80;100857.84;2156648;80;20973;-84
2021/09/08 10:32:54;;;;;;;12.55;8.70;;;;;;;26.82;43.10;100852.34;2152191;80;20954;-87
2021/09/08 10:35:56;;;;;;;11.83;9.20;;;;;;;26.93;43.43;100859.25;2158953;80;21515;-87
2021/09/08 10:39:11;;;;;;;10.72;9.23;;;;;;;27.17;42.53;100855.16;2148026;81;20955;-83
2021/09/08 10:42:14;;;;;;;12.47;9.45;;;;;;;27.02;40.84;100849.53;2148204;81;20997;-87
2021/09/08 10:45:22;;;;;;;12.95;10.23;;;;;;;26.69;40.11;100838.31;2150775;81;20971;-87
2021/09/08 10:48:45;;;;;;;11.55;9.28;;;;;;;26.42;40.20;100840.45;2148111;81;21066;-83
2021/09/08 10:51:47;;;;;;;13.48;8.80;;;;;;;26.39;41.13;100836.34;2142961;81;21817;-86
2021/09/08 10:55:02;;;;;;;10.13;7.55;;;;;;;26.62;40.84;100835.80;2149127;81;21051;-86
2021/09/08 10:58:04;;;;;;;9.43;8.13;;;;;;;26.73;41.04;100844.91;2152133;81;21456;-84
2021/09/08 11:01:17;;;;;;;9.40;8.00;;;;;;;26.91;39.39;100830.09;2146078;81;22306;-84
2021/09/08 11:04:19;;;;;;;11.50;7.80;;;;;;;26.98;39.48;100832.89;2152255;81;21326;-84
2021/09/08 11:07:20;;;;;;;10.60;6.87;;;;;;;27.02;39.28;100819.03;2150104;81;21582;-86
2021/09/08 11:10:32;;;;;;;7.97;6.72;;;;;;;27.02;38.25;100823.66;2151269;81;21495;-85
2021/09/08 11:13:33;;;;;;;9.48;7.12;;;;;;;27.07;38.62;100818.27;2144668;81;20962;-84
2021/09/08 11:16:34;;;;;;;8.30;6.60;;;;;;;27.26;37.40;100812.73;2148792;81;21007;-83
2021/09/08 11:19:36;;;;;;;8.65;7.15;;;;;;;27.29;37.80;100810.03;2155403;81;21034;-84
2021/09/08 11:22:38;;;;;;;8.85;6.85;;;;;;;27.14;35.79;100807.95;2148310;81;21067;-84
2021/09/08 11:25:42;;;;;;;8.08;6.60;;;;;;;26.90;35.46;100810.22;2148200;81;21561;-86
2021/09/08 11:28:44;;;;;;;8.48;6.75;;;;;;;26.82;35.77;100807.96;2152299;81;21054;-85
2021/09/08 11:31:47;;;;;;;8.35;6.50;;;;;;;26.89;36.50;100806.37;2152287;81;20991;-86
2021/09/08 11:34:50;;;;;;;7.03;6.30;;;;;;;26.99;37.09;100802.39;2153823;81;21011;-85
2021/09/08 11:37:52;;;;;;;7.70;6.90;;;;;;;27.11;36.65;100807.11;2157325;80;21041;-82
2021/09/08 11:41:01;;;;;;;7.55;6.75;;;;;;;27.33;35.78;100801.59;2169230;80;20931;-86
2021/09/08 11:44:03;;;;;;;10.15;7.12;;;;;;;27.07;35.82;100801.92;2166410;80;20986;-81
2021/09/08 11:47:17;;;;;;;7.22;6.53;;;;;;;26.89;36.26;100793.61;2166276;80;21591;-81
2021/09/08 11:50:19;;;;;;;10.00;6.70;;;;;;;26.93;35.93;100798.80;2160842;80;21070;-83
2021/09/08 11:53:25;;;;;;;8.05;6.45;;;;;;;26.83;36.72;100795.47;2157928;80;20967;-84
2021/09/08 11:56:27;;;;;;;8.63;6.75;;;;;;;26.97;36.16;100787.66;2162205;80;21000;-82
2021/09/08 11:59:32;;;;;;;8.70;7.20;;;;;;;27.00;36.46;100787.69;2160540;80;21006;-80
2021/09/08 12:02:33;;;;;;;8.83;6.65;;;;;;;26.82;36.25;100786.19;2160093;80;21013;-85
2021/09/08 12:05:35;;;;;;;9.78;7.28;;;;;;;26.71;34.44;100782.55;2168117;80;20949;-86
2021/09/08 12:08:37;;;;;;;9.40;7.12;;;;;;;26.49;34.95;100783.92;2157045;80;21033;-84
2021/09/08 12:11:48;;;;;;;7.45;6.65;;;;;;;26.38;35.62;100787.61;2155702;80;20989;-81
2021/09/08 12:14:49;;;;;;;10.70;7.12;;;;;;;26.48;35.85;100784.20;2164496;80;21001;-81
2021/09/08 12:17:51;;;;;;;8.93;7.42;;;;;;;26.49;35.30;100781.20;2163973;80;21565;-82
2021/09/08 12:20:52;;;;;;;9.00;6.67;;;;;;;26.37;35.79;100773.73;2165306;80;21499;-81
2021/09/08 12:23:54;;;;;;;7.80;6.97;;;;;;;26.26;35.34;100777.42;2166912;80;21016;-83
2021/09/08 12:26:57;;;;;;;8.78;6.53;;;;;;;26.14;34.56;100768.87;2144192;80;21028;-83
2021/09/08 12:30:12;;;;;;;8.58;6.92;;;;;;;26.14;35.02;100760.70;2153076;80;21463;-83
2021/09/08 12:33:15;;;;;;;10.05;6.55;;;;;;;26.17;35.71;100766.17;2156454;80;21556;-82
2021/09/08 12:36:16;;;;;;;9.55;7.25;;;;;;;26.20;34.98;100762.95;2162259;80;21045;-83
2021/09/08 12:39:23;;;;;;;7.85;7.05;;;;;;;26.05;35.28;100758.16;2180622;80;21058;-83
2021/09/08 12:42:26;;;;;;;15.50;7.55;;;;;;;26.07;35.99;100758.73;2187796;80;21007;-82
2021/09/08 12:45:29;;;;;;;7.80;7.00;;;;;;;26.07;36.47;100748.38;2176301;80;20939;-84
2021/09/08 12:48:30;;;;;;;8.33;6.87;;;;;;;26.08;35.97;100750.03;2186042;80;21032;-84
2021/09/08 12:51:32;;;;;;;9.78;7.83;;;;;;;26.10;36.73;100743.78;2183353;80;21002;-85
2021/09/08 12:54:34;;;;;;;8.93;7.03;;;;;;;26.01;36.45;100741.23;2183358;80;20997;-84
2021/09/08 12:57:35;;;;;;;12.90;7.10;;;;;;;26.01;37.55;100726.28;2178234;80;21020;-83
2021/09/08 13:00:37;;;;;;;8.43;7.42;;;;;;;26.12;37.20;100729.41;2185324;80;20947;-84
2021/09/08 13:03:39;;;;;;;7.40;6.50;;;;;;;26.05;36.06;100731.52;2181243;80;21004;-83
2021/09/08 13:06:41;;;;;;;10.00;6.45;;;;;;;25.93;36.44;100722.96;2186868;80;20982;-84
2021/09/08 13:09:42;;;;;;;7.50;6.53;;;;;;;25.92;36.07;100713.14;2188453;80;21033;-84
2021/09/08 13:12:45;;;;;;;13.93;6.62;;;;;;;25.89;35.77;100713.66;2172142;80;21010;-83
2021/09/08 13:15:47;;;;;;;8.20;6.62;;;;;;;25.78;34.72;100711.86;2182823;80;20977;-85
2021/09/08 13:18:49;;;;;;;7.30;6.17;;;;;;;25.59;36.22;100707.27;2174839;80;21076;-85
2021/09/08 13:21:51;;;;;;;10.35;6.62;;;;;;;25.61;36.11;100708.38;2175992;80;20972;-84
2021/09/08 13:24:52;;;;;;;8.68;5.72;;;;;;;25.63;36.37;100703.53;2180532;80;21528;-83
2021/09/08 13:27:54;;;;;;;7.50;6.80;;;;;;;25.67;36.05;100697.31;2178181;80;21000;-84
2021/09/08 13:30:56;;;;;;;8.15;6.25;;;;;;;25.73;36.54;100694.13;2185640;80;21029;-81
2021/09/08 13:34:00;;;;;;;6.65;6.00;;;;;;;25.82;35.84;100689.06;2183722;80;20972;-82
2021/09/08 13:37:02;;;;;;;6.35;5.70;;;;;;;25.84;36.86;100689.67;2176860;80;21031;-83
2021/09/08 13:40:05;;;;;;;8.55;6.62;;;;;;;25.61;35.17;100681.21;2175238;80;21051;-84
2021/09/08 13:43:07;;;;;;;7.33;6.40;;;;;;;25.48;36.04;100679.17;2172658;80;21006;-84
2021/09/08 13:46:09;;;;;;;6.85;6.03;;;;;;;25.46;35.40;100669.08;2168841;80;21034;-83
2021/09/08 13:49:11;;;;;;;8.00;5.72;;;;;;;25.50;36.34;100665.31;2175254;80;21048;-86
2021/09/08 13:52:12;;;;;;;7.65;6.03;;;;;;;25.56;36.76;100660.77;2166307;80;20985;-83
2021/09/08 13:55:15;;;;;;;7.80;5.33;;;;;;;25.48;35.56;100657.44;2168952;80;20967;-81